createdAt,value
2023-03-03T00:00:50.386Z,99.90
2023-03-03T00:03:21.964Z,99.90
2023-03-03T00:05:49.669Z,99.90
2023-03-03T00:08:17.799Z,99.90
2023-03-03T00:10:45.219Z,99.90
2023-03-03T00:13:23.022Z,99.90
2023-03-03T00:15:51.734Z,99.90
2023-03-03T00:18:31.268Z,99.90
2023-03-03T00:21:01.058Z,99.90
2023-03-03T00:23:34.940Z,99.90
2023-03-03T00:26:02.419Z,99.90
2023-03-03T00:28:32.963Z,99.90
2023-03-03T00:31:03.300Z,99.90
2023-03-03T00:33:32.475Z,99.90
2023-03-03T00:36:11.047Z,99.90
2023-03-03T00:38:38.384Z,99.90
2023-03-03T00:41:16.940Z,99.90
2023-03-03T00:43:44.184Z,99.90
2023-03-03T00:46:19.232Z,99.90
2023-03-03T00:48:47.890Z,99.90
2023-03-03T00:51:30.824Z,99.90
2023-03-03T00:53:59.528Z,99.90
2023-03-03T00:56:27.716Z,99.90
2023-03-03T00:58:55.288Z,99.90
2023-03-03T01:01:22.644Z,99.90
2023-03-03T01:03:49.969Z,99.90
2023-03-03T01:06:17.071Z,99.90
2023-03-03T01:08:44.428Z,99.90
2023-03-03T01:11:19.845Z,99.90
2023-03-03T01:13:50.088Z,99.90
2023-03-03T01:16:17.468Z,99.90
2023-03-03T01:18:44.941Z,99.90
2023-03-03T01:21:12.597Z,99.90
2023-03-03T01:23:39.959Z,99.90
2023-03-03T01:26:07.006Z,99.90
2023-03-03T01:28:35.086Z,99.90
2023-03-03T01:31:03.961Z,99.90
2023-03-03T01:33:32.809Z,99.90
2023-03-03T01:35:59.843Z,99.90
2023-03-03T01:38:27.843Z,99.90
2023-03-03T01:40:56.819Z,99.90
2023-03-03T01:43:27.514Z,99.90
2023-03-03T01:45:57.755Z,99.90
2023-03-03T01:48:42.712Z,99.90
2023-03-03T01:51:48.724Z,99.90
2023-03-03T01:54:24.877Z,99.90
2023-03-03T01:56:55.231Z,99.90
2023-03-03T01:59:31.470Z,99.90
2023-03-03T02:01:58.527Z,99.90
2023-03-03T02:04:26.850Z,99.90
2023-03-03T02:07:04.288Z,99.90
2023-03-03T02:09:43.691Z,99.90
2023-03-03T02:12:16.546Z,99.90
2023-03-03T02:14:43.930Z,99.90
2023-03-03T02:17:11.736Z,99.90
2023-03-03T02:19:55.818Z,99.90
2023-03-03T02:22:39.074Z,99.90
2023-03-03T02:25:08.258Z,99.90
2023-03-03T02:27:36.565Z,99.90
2023-03-03T02:30:30.522Z,99.90
2023-03-03T02:32:57.435Z,99.90
2023-03-03T02:35:32.786Z,99.90
2023-03-03T02:38:18.620Z,99.90
2023-03-03T02:40:58.041Z,99.90
2023-03-03T02:43:31.244Z,99.90
2023-03-03T02:45:58.786Z,99.90
2023-03-03T02:48:25.780Z,99.90
2023-03-03T02:50:53.276Z,99.90
2023-03-03T02:53:20.598Z,99.90
2023-03-03T02:55:47.838Z,99.90
2023-03-03T02:58:14.818Z,99.90
2023-03-03T03:00:42.142Z,99.90
2023-03-03T03:03:09.196Z,99.90
2023-03-03T03:05:36.444Z,99.90
2023-03-03T03:08:03.420Z,99.90
2023-03-03T03:10:30.766Z,99.90
2023-03-03T03:12:57.720Z,99.90
2023-03-03T03:15:24.940Z,99.90
2023-03-03T03:20:19.566Z,99.90
2023-03-03T03:22:46.492Z,99.90
2023-03-03T03:25:13.795Z,99.90
2023-03-03T03:27:40.780Z,99.90
2023-03-03T03:30:08.831Z,99.90
2023-03-03T03:32:36.169Z,99.90
2023-03-03T03:35:03.509Z,99.90
2023-03-03T03:37:30.508Z,99.90
2023-03-03T03:39:57.832Z,99.90
2023-03-03T03:42:24.784Z,99.90
2023-03-03T03:44:52.159Z,99.90
2023-03-03T03:47:19.162Z,99.90
2023-03-03T03:49:46.469Z,99.90
2023-03-03T03:52:13.475Z,99.90
2023-03-03T03:54:40.969Z,99.90
2023-03-03T03:57:08.320Z,99.90
2023-03-03T03:59:35.591Z,99.90
2023-03-03T04:02:02.710Z,99.90
2023-03-03T04:04:30.504Z,99.90
2023-03-03T04:06:57.453Z,99.90
2023-03-03T04:09:24.824Z,99.90
2023-03-03T04:11:51.816Z,99.90
2023-03-03T04:14:19.110Z,99.90
2023-03-03T04:16:46.112Z,99.90
2023-03-03T04:19:13.450Z,99.90
2023-03-03T04:21:40.496Z,99.90
2023-03-03T04:24:08.010Z,99.90
2023-03-03T04:26:35.012Z,99.90
2023-03-03T04:29:02.617Z,99.90
2023-03-03T04:31:29.596Z,99.90
2023-03-03T04:33:57.158Z,99.90
2023-03-03T04:36:24.491Z,99.90
2023-03-03T04:38:51.762Z,99.90
2023-03-03T04:41:18.775Z,99.90
2023-03-03T04:43:46.104Z,99.90
2023-03-03T04:46:13.273Z,99.90
2023-03-03T04:48:40.898Z,99.90
2023-03-03T04:51:07.803Z,99.90
2023-03-03T04:53:36.641Z,99.90
2023-03-03T04:56:04.873Z,99.90
2023-03-03T04:58:32.114Z,99.90
2023-03-03T05:00:59.293Z,99.90
2023-03-03T05:03:27.251Z,99.90
2023-03-03T05:05:54.350Z,99.90
2023-03-03T05:08:21.935Z,99.90
2023-03-03T05:10:53.169Z,99.90
2023-03-03T05:13:20.535Z,99.90
2023-03-03T05:15:52.121Z,99.90
2023-03-03T05:18:20.240Z,99.90
2023-03-03T05:20:47.688Z,99.90
2023-03-03T05:23:15.051Z,99.90
2023-03-03T05:25:42.419Z,99.90
2023-03-03T05:28:10.500Z,99.90
2023-03-03T05:30:37.902Z,99.90
2023-03-03T05:33:06.356Z,99.90
2023-03-03T05:35:34.154Z,99.90
2023-03-03T05:38:03.133Z,99.90
2023-03-03T05:40:31.333Z,99.90
2023-03-03T05:42:58.735Z,99.90
2023-03-03T05:45:25.712Z,99.90
2023-03-03T05:47:53.839Z,99.90
2023-03-03T05:50:22.340Z,99.90
2023-03-03T05:52:50.911Z,99.90
2023-03-03T05:55:18.628Z,99.90
2023-03-03T05:57:46.132Z,99.90
2023-03-03T06:00:14.620Z,99.90
2023-03-03T06:02:42.897Z,99.90
2023-03-03T06:05:10.580Z,99.90
2023-03-03T06:07:38.361Z,99.90
2023-03-03T06:10:06.212Z,99.90
2023-03-03T06:12:33.537Z,99.90
2023-03-03T06:15:00.494Z,99.90
2023-03-03T06:17:27.824Z,99.90
2023-03-03T06:19:54.803Z,99.90
2023-03-03T06:22:22.041Z,99.90
2023-03-03T06:24:49.050Z,99.90
2023-03-03T06:27:16.297Z,99.90
2023-03-03T06:29:43.357Z,99.90
2023-03-03T06:32:10.909Z,99.90
2023-03-03T06:34:38.113Z,99.90
2023-03-03T06:37:05.339Z,99.90
2023-03-03T06:39:32.272Z,99.90
2023-03-03T06:41:59.602Z,99.90
2023-03-03T06:44:28.727Z,99.90
2023-03-03T06:46:57.981Z,99.90
2023-03-03T06:49:25.345Z,99.90
2023-03-03T06:51:52.594Z,99.90
2023-03-03T06:54:26.538Z,99.90
2023-03-03T06:56:59.728Z,99.90
2023-03-03T06:59:27.819Z,99.90
2023-03-03T07:01:56.049Z,99.90
2023-03-03T07:04:30.870Z,99.90
2023-03-03T07:07:01.474Z,99.90
2023-03-03T07:09:30.028Z,99.90
2023-03-03T07:12:02.434Z,99.90
2023-03-03T07:14:30.383Z,99.90
2023-03-03T07:17:01.741Z,99.90
2023-03-03T07:19:36.872Z,99.90
2023-03-03T07:22:24.340Z,99.90
2023-03-03T07:24:54.626Z,99.90
2023-03-03T07:27:28.033Z,99.90
2023-03-03T07:30:29.177Z,99.90
2023-03-03T07:32:58.725Z,99.90
2023-03-03T07:35:51.788Z,99.90
2023-03-03T07:38:45.366Z,99.90
2023-03-03T07:41:20.996Z,99.90
2023-03-03T07:43:54.405Z,99.90
2023-03-03T07:46:28.777Z,99.90
2023-03-03T07:49:00.244Z,99.90
2023-03-03T07:51:36.386Z,99.90
2023-03-03T07:54:28.624Z,99.90
2023-03-03T07:57:17.483Z,99.90
2023-03-03T08:00:16.847Z,99.90
2023-03-03T08:02:55.752Z,99.90
2023-03-03T08:05:27.601Z,99.90
2023-03-03T08:08:11.090Z,99.90
2023-03-03T08:10:54.248Z,99.90
2023-03-03T08:13:33.470Z,99.90
2023-03-03T08:16:09.678Z,99.90
2023-03-03T08:18:42.372Z,99.90
2023-03-03T08:21:33.629Z,99.90
2023-03-03T08:24:00.885Z,99.90
2023-03-03T08:26:28.201Z,99.90
2023-03-03T08:28:55.778Z,99.90
2023-03-03T08:31:39.843Z,99.90
2023-03-03T08:34:07.697Z,99.90
2023-03-03T08:36:35.241Z,99.90
2023-03-03T08:39:03.589Z,99.90
2023-03-03T08:41:30.925Z,99.90
2023-03-03T08:43:57.862Z,99.90
2023-03-03T08:46:25.351Z,99.90
2023-03-03T08:48:52.652Z,99.90
2023-03-03T08:51:34.906Z,99.90
2023-03-03T08:54:02.145Z,99.90
2023-03-03T08:56:29.079Z,99.90
2023-03-03T08:59:03.594Z,99.90
2023-03-03T09:01:32.533Z,99.90
2023-03-03T09:03:59.950Z,99.90
2023-03-03T09:06:27.245Z,99.90
2023-03-03T09:09:03.039Z,99.90
2023-03-03T09:11:30.637Z,99.90
2023-03-03T09:14:07.178Z,99.90
2023-03-03T09:16:41.773Z,99.90
2023-03-03T09:19:28.136Z,99.90
2023-03-03T09:21:57.545Z,99.90
2023-03-03T09:24:26.369Z,99.90
2023-03-03T09:26:53.777Z,99.90
2023-03-03T09:29:28.000Z,99.90
2023-03-03T09:31:56.096Z,99.90
2023-03-03T09:34:43.622Z,99.90
2023-03-03T09:37:32.458Z,99.90
2023-03-03T09:39:59.729Z,99.90
2023-03-03T09:42:26.556Z,99.90
2023-03-03T09:45:02.904Z,99.90
2023-03-03T09:47:33.219Z,99.90
2023-03-03T09:50:25.070Z,99.90
2023-03-03T09:53:16.829Z,99.90
2023-03-03T09:56:03.667Z,99.90
2023-03-03T09:58:36.222Z,99.90
2023-03-03T10:01:42.879Z,99.90
2023-03-03T10:04:40.690Z,99.90
2023-03-03T10:07:10.749Z,99.90
2023-03-03T10:10:05.401Z,99.90
2023-03-03T10:12:44.383Z,99.90
2023-03-03T10:15:23.638Z,99.90
2023-03-03T10:18:04.349Z,99.90
2023-03-03T10:21:02.027Z,99.90
2023-03-03T10:23:29.160Z,99.90
2023-03-03T10:26:08.458Z,99.90
2023-03-03T10:28:41.505Z,99.90
2023-03-03T10:31:28.820Z,99.90
2023-03-03T10:34:02.242Z,99.90
2023-03-03T10:36:56.859Z,99.90
2023-03-03T10:39:24.069Z,99.90
2023-03-03T10:41:53.958Z,99.90
2023-03-03T10:44:25.758Z,99.90
2023-03-03T10:47:02.285Z,99.90
2023-03-03T10:49:47.296Z,99.90
2023-03-03T10:52:44.684Z,99.90
2023-03-03T10:55:27.049Z,99.90
2023-03-03T10:58:06.209Z,99.90
2023-03-03T11:01:05.940Z,99.90
2023-03-03T11:04:00.281Z,99.90
2023-03-03T11:07:06.713Z,99.90
2023-03-03T11:09:35.107Z,99.90
2023-03-03T11:12:23.321Z,99.90
2023-03-03T11:15:20.760Z,99.90
2023-03-03T11:18:25.763Z,99.90
2023-03-03T11:21:02.996Z,99.90
2023-03-03T11:24:02.458Z,99.90
2023-03-03T11:26:44.633Z,99.90
2023-03-03T11:29:15.197Z,99.90
2023-03-03T11:31:51.445Z,99.90
2023-03-03T11:34:47.615Z,99.90
2023-03-03T11:37:24.496Z,99.90
2023-03-03T11:39:55.539Z,99.90
2023-03-03T11:42:58.764Z,99.90
2023-03-03T11:45:36.394Z,99.90
2023-03-03T11:48:21.110Z,99.90
2023-03-03T11:51:00.866Z,99.90
2023-03-03T11:53:49.446Z,99.90
2023-03-03T11:56:22.053Z,99.90
2023-03-03T11:59:07.175Z,99.90
2023-03-03T12:01:41.891Z,99.90
2023-03-03T12:04:14.742Z,99.90
2023-03-03T12:07:18.465Z,99.90
2023-03-03T12:09:46.498Z,99.90
2023-03-03T12:12:24.261Z,99.90
2023-03-03T12:15:00.321Z,99.90
2023-03-03T12:18:05.342Z,99.90
2023-03-03T12:20:58.594Z,99.90
2023-03-03T12:23:35.302Z,99.90
2023-03-03T12:26:32.997Z,99.90
2023-03-03T12:29:36.669Z,99.90
2023-03-03T12:32:22.871Z,99.90
2023-03-03T12:35:25.969Z,99.90
2023-03-03T12:38:03.093Z,99.90
2023-03-03T12:40:46.230Z,99.90
2023-03-03T12:43:48.741Z,99.90
2023-03-03T12:46:15.947Z,99.90
2023-03-03T12:48:45.169Z,99.90
2023-03-03T12:51:27.905Z,99.90
2023-03-03T12:54:38.194Z,99.90
2023-03-03T12:57:21.678Z,99.90
2023-03-03T13:00:18.988Z,98.90
2023-03-03T13:03:12.485Z,99.90
2023-03-03T13:05:52.047Z,99.90
2023-03-03T13:08:22.258Z,98.90
2023-03-03T13:10:59.873Z,99.90
2023-03-03T13:13:37.478Z,99.90
2023-03-03T13:16:22.203Z,99.30
2023-03-03T13:19:11.867Z,99.80
2023-03-03T13:22:08.416Z,99.90
2023-03-03T13:24:49.202Z,99.30
2023-03-03T13:27:20.781Z,99.50
2023-03-03T13:30:15.506Z,99.00
2023-03-03T13:32:43.193Z,99.50
2023-03-03T13:35:41.376Z,97.60
2023-03-03T13:38:14.643Z,98.60
2023-03-03T13:40:54.440Z,98.00
2023-03-03T13:43:35.001Z,97.70
2023-03-03T13:46:26.893Z,98.90
2023-03-03T13:49:15.176Z,97.60
2023-03-03T13:51:55.059Z,97.50
2023-03-03T13:54:57.435Z,96.10
2023-03-03T13:57:27.721Z,95.20
2023-03-03T14:00:15.844Z,95.90
2023-03-03T14:03:24.894Z,96.10
2023-03-03T14:05:58.770Z,95.70
2023-03-03T14:08:43.156Z,95.00
2023-03-03T14:11:22.289Z,93.00
2023-03-03T14:13:52.493Z,93.10
2023-03-03T14:16:31.566Z,92.50
2023-03-03T14:19:23.954Z,93.60
2023-03-03T14:22:09.706Z,90.30
2023-03-03T14:24:57.085Z,91.80
2023-03-03T14:27:27.856Z,91.80
2023-03-03T14:29:55.142Z,92.30
2023-03-03T14:32:39.382Z,93.30
2023-03-03T14:35:22.394Z,94.40
2023-03-03T14:37:50.727Z,94.00
2023-03-03T14:40:22.490Z,94.70
2023-03-03T14:42:52.068Z,96.70
2023-03-03T14:45:33.380Z,97.60
2023-03-03T14:48:06.710Z,98.70
2023-03-03T14:50:42.875Z,98.10
2023-03-03T14:53:15.019Z,98.70
2023-03-03T14:55:45.961Z,98.90
2023-03-03T14:58:34.726Z,99.80
2023-03-03T15:01:32.034Z,99.90
2023-03-03T15:04:16.211Z,99.90
2023-03-03T15:06:51.689Z,99.90
2023-03-03T15:09:48.546Z,99.90
2023-03-03T15:12:26.328Z,99.90
2023-03-03T15:15:11.756Z,99.90
2023-03-03T15:17:44.797Z,99.90
2023-03-03T15:20:32.842Z,99.90
2023-03-03T15:23:19.486Z,99.90
2023-03-03T15:26:09.341Z,99.90
2023-03-03T15:28:46.075Z,99.90
2023-03-03T15:31:22.767Z,99.90
2023-03-03T15:33:55.784Z,99.90
2023-03-03T15:37:04.220Z,99.90
2023-03-03T15:39:49.674Z,99.90
2023-03-03T15:42:39.213Z,99.90
2023-03-03T15:45:33.706Z,99.90
2023-03-03T15:48:06.543Z,99.90
2023-03-03T15:50:46.104Z,99.90
2023-03-03T15:53:34.114Z,99.90
2023-03-03T15:56:25.686Z,99.90
2023-03-03T15:59:24.992Z,99.90
2023-03-03T16:02:19.488Z,99.90
2023-03-03T16:05:22.676Z,99.90
2023-03-03T16:08:09.066Z,99.90
2023-03-03T16:11:05.313Z,99.90
2023-03-03T16:14:03.935Z,99.90
2023-03-03T16:16:43.764Z,99.90
2023-03-03T16:19:41.338Z,99.90
2023-03-03T16:22:35.562Z,99.90
2023-03-03T16:25:02.754Z,99.90
2023-03-03T16:27:44.119Z,99.90
2023-03-03T16:30:31.626Z,99.90
2023-03-03T16:33:16.799Z,99.90
2023-03-03T16:36:30.708Z,99.90
2023-03-03T16:39:06.165Z,99.90
2023-03-03T16:41:39.827Z,99.90
2023-03-03T16:44:06.735Z,99.90
2023-03-03T16:46:49.504Z,99.90
2023-03-03T16:49:33.463Z,99.90
2023-03-03T16:52:00.599Z,99.90
2023-03-03T16:54:30.518Z,99.90
2023-03-03T16:56:57.706Z,99.90
2023-03-03T16:59:51.892Z,99.90
2023-03-03T17:02:53.847Z,99.90
2023-03-03T17:05:41.113Z,99.90
2023-03-03T17:08:24.219Z,99.90
2023-03-03T17:11:38.578Z,99.90
2023-03-03T17:14:17.991Z,99.90
2023-03-03T17:17:08.691Z,99.90
2023-03-03T17:20:06.916Z,99.90
2023-03-03T17:23:01.866Z,99.90
2023-03-03T17:25:49.318Z,99.90
2023-03-03T17:28:34.663Z,99.90
2023-03-03T17:31:35.210Z,99.90
2023-03-03T17:34:23.197Z,99.90
2023-03-03T17:36:59.845Z,99.90
2023-03-03T17:39:44.989Z,99.90
2023-03-03T17:42:20.864Z,99.90
2023-03-03T17:44:51.016Z,99.90
2023-03-03T17:47:42.340Z,99.90
2023-03-03T17:50:23.550Z,99.90
2023-03-03T17:53:15.743Z,99.90
2023-03-03T17:55:42.568Z,99.90
2023-03-03T17:58:25.878Z,99.90
2023-03-03T18:01:17.618Z,99.90
2023-03-03T18:03:56.586Z,99.90
2023-03-03T18:06:47.437Z,99.90
2023-03-03T18:09:47.473Z,99.90
2023-03-03T18:12:18.806Z,99.90
2023-03-03T18:14:54.860Z,99.90
2023-03-03T18:17:27.827Z,99.90
2023-03-03T18:20:29.082Z,99.90
2023-03-03T18:22:56.122Z,99.90
2023-03-03T18:25:45.369Z,99.90
2023-03-03T18:28:23.893Z,99.90
2023-03-03T18:31:00.327Z,99.90
2023-03-03T18:33:41.561Z,99.90
2023-03-03T18:36:26.554Z,99.90
2023-03-03T18:38:56.709Z,99.90
2023-03-03T18:41:27.309Z,99.90
2023-03-03T18:44:04.538Z,99.90
2023-03-03T18:46:31.804Z,99.90
2023-03-03T18:49:08.611Z,99.90
2023-03-03T18:51:38.615Z,99.90
2023-03-03T18:54:17.394Z,99.90
2023-03-03T18:56:53.694Z,99.90
2023-03-03T18:59:35.726Z,99.90
2023-03-03T19:02:12.270Z,99.90
2023-03-03T19:04:48.062Z,99.90
2023-03-03T19:07:26.909Z,99.90
2023-03-03T19:10:00.544Z,99.90
2023-03-03T19:12:46.539Z,99.90
2023-03-03T19:15:33.623Z,99.90
2023-03-03T19:18:14.227Z,99.90
2023-03-03T19:20:44.368Z,99.90
2023-03-03T19:23:15.234Z,99.90
2023-03-03T19:25:42.444Z,99.90
2023-03-03T19:28:31.165Z,99.90
2023-03-03T19:31:05.583Z,99.90
2023-03-03T19:33:41.910Z,99.90
2023-03-03T19:36:22.675Z,99.90
2023-03-03T19:38:55.675Z,99.90
2023-03-03T19:41:46.369Z,99.90
2023-03-03T19:44:35.513Z,99.90
2023-03-03T19:47:10.977Z,99.90
2023-03-03T19:49:53.133Z,99.90
2023-03-03T19:52:31.855Z,99.90
2023-03-03T19:55:02.096Z,99.90
2023-03-03T19:57:59.177Z,99.90
2023-03-03T20:00:43.504Z,99.90
2023-03-03T20:03:38.737Z,99.90
2023-03-03T20:06:12.241Z,99.90
2023-03-03T20:09:08.541Z,99.90
2023-03-03T20:11:59.230Z,99.90
2023-03-03T20:14:57.844Z,99.90
2023-03-03T20:17:31.002Z,99.90
2023-03-03T20:20:34.349Z,99.90
2023-03-03T20:23:25.798Z,99.90
2023-03-03T20:26:00.854Z,99.90
2023-03-03T20:28:37.504Z,99.90
2023-03-03T20:31:25.239Z,99.90
2023-03-03T20:34:39.688Z,99.90
2023-03-03T20:37:44.594Z,99.90
2023-03-03T20:40:49.656Z,99.90
2023-03-03T20:43:43.775Z,99.90
2023-03-03T20:46:20.121Z,99.90
2023-03-03T20:49:22.830Z,99.90
2023-03-03T20:52:05.798Z,99.90
2023-03-03T20:54:39.239Z,99.90
2023-03-03T20:57:34.149Z,99.90
2023-03-03T21:00:24.967Z,99.90
2023-03-03T21:03:03.162Z,99.90
2023-03-03T21:05:30.388Z,99.90
2023-03-03T21:08:05.496Z,99.90
2023-03-03T21:10:35.538Z,99.90
2023-03-03T21:13:44.079Z,99.90
2023-03-03T21:16:27.987Z,99.90
2023-03-03T21:19:04.644Z,99.90
2023-03-03T21:21:35.060Z,99.90
2023-03-03T21:24:02.792Z,99.90
2023-03-03T21:26:52.886Z,99.90
2023-03-03T21:29:28.833Z,99.90
2023-03-03T21:31:57.094Z,99.90
2023-03-03T21:34:26.344Z,99.90
2023-03-03T21:36:54.542Z,99.90
2023-03-03T21:39:21.789Z,99.90
2023-03-03T21:41:57.429Z,99.90
2023-03-03T21:44:30.764Z,99.90
2023-03-03T21:46:58.744Z,99.90
2023-03-03T21:49:26.472Z,99.90
2023-03-03T21:51:54.645Z,99.90
2023-03-03T21:54:21.863Z,99.90
2023-03-03T21:56:49.987Z,99.90
2023-03-03T21:59:18.265Z,99.90
2023-03-03T22:01:46.226Z,99.90
2023-03-03T22:04:13.711Z,99.90
2023-03-03T22:06:40.939Z,99.90
2023-03-03T22:09:08.982Z,99.90
2023-03-03T22:11:35.914Z,99.90
2023-03-03T22:14:03.173Z,99.90
2023-03-03T22:16:30.130Z,99.90
2023-03-03T22:18:57.639Z,99.90
2023-03-03T22:21:24.842Z,99.90
2023-03-03T22:23:52.058Z,99.90
2023-03-03T22:26:19.068Z,99.90
2023-03-03T22:28:46.202Z,99.90
2023-03-03T22:31:13.162Z,99.90
2023-03-03T22:33:40.420Z,99.90
2023-03-03T22:36:08.324Z,99.90
2023-03-03T22:38:35.577Z,99.90
2023-03-03T22:41:02.827Z,99.90
2023-03-03T22:43:30.356Z,99.90
2023-03-03T22:45:57.438Z,99.90
2023-03-03T22:48:26.263Z,99.90
2023-03-03T22:50:54.400Z,99.90
2023-03-03T22:53:22.037Z,99.90
2023-03-03T22:55:49.120Z,99.90
2023-03-03T22:58:19.635Z,99.90
2023-03-03T23:00:49.562Z,99.90
2023-03-03T23:03:16.894Z,99.90
2023-03-03T23:05:44.989Z,99.90
2023-03-03T23:08:15.016Z,99.90
2023-03-03T23:10:42.164Z,99.90
2023-03-03T23:13:09.748Z,99.90
2023-03-03T23:15:37.153Z,99.90
2023-03-03T23:18:04.590Z,99.90
2023-03-03T23:20:31.741Z,99.90
2023-03-03T23:22:59.226Z,99.90
2023-03-03T23:25:26.392Z,99.90
2023-03-03T23:27:53.738Z,99.90
2023-03-03T23:30:21.981Z,99.90
2023-03-03T23:32:49.543Z,99.90
2023-03-03T23:35:17.078Z,99.90
2023-03-03T23:37:44.969Z,99.90
2023-03-03T23:40:13.858Z,99.90
2023-03-03T23:42:41.133Z,99.90
2023-03-03T23:45:09.250Z,99.90
2023-03-03T23:47:36.772Z,99.90
2023-03-03T23:50:04.577Z,99.90
2023-03-03T23:52:32.025Z,99.90
2023-03-03T23:54:58.964Z,99.90
2023-03-03T23:57:26.173Z,99.90
2023-03-03T23:59:53.137Z,99.90
